Time;durP1;ratioP1;P1;durP2;ratioP2;P2;SDS_P1;SDS_P2;PMS_P1;PMS_P2;Temp;Humidity;BMP_temperature;BMP_pressure;BME280_temperature;BME280_humidity;BME280_pressure;Samples;Min_cycle;Max_cycle;Signal;HPM_P1;HPM_P2
2021/11/30 00:00:38;;;;;;;0.90;0.90;;;4.20;99.90;;;;;;5043773;28;20439;-78
2021/11/30 00:03:03;;;;;;;1.05;1.05;;;4.20;99.90;;;;;;5040005;28;20040;-77
2021/11/30 00:05:29;;;;;;;1.23;1.13;;;4.30;99.90;;;;;;5021058;28;20041;-77
2021/11/30 00:07:56;;;;;;;0.93;0.93;;;4.40;99.90;;;;;;5016370;28;20047;-78
2021/11/30 00:10:44;;;;;;;1.20;1.10;;;4.30;99.90;;;;;;5002445;28;20075;-77
2021/11/30 00:13:21;;;;;;;2.30;1.35;;;4.30;99.90;;;;;;5007608;28;20049;-78
2021/11/30 00:15:49;;;;;;;1.00;0.95;;;4.40;99.90;;;;;;5033095;28;20506;-78
2021/11/30 00:18:16;;;;;;;1.65;1.55;;;4.50;99.90;;;;;;5019220;28;20495;-78
2021/11/30 00:20:43;;;;;;;1.52;1.10;;;4.50;99.90;;;;;;5022850;28;20052;-77
2021/11/30 00:23:09;;;;;;;0.80;0.80;;;4.60;99.90;;;;;;5022934;28;20042;-77
2021/11/30 00:25:36;;;;;;;1.70;1.20;;;4.70;99.90;;;;;;5026451;28;20049;-78
2021/11/30 00:28:03;;;;;;;1.23;1.13;;;4.80;99.90;;;;;;5007442;28;20048;-77
2021/11/30 00:30:30;;;;;;;0.82;0.82;;;4.90;99.90;;;;;;5027817;28;20053;-77
2021/11/30 00:32:57;;;;;;;0.90;0.90;;;4.90;99.90;;;;;;5028685;28;20042;-78
2021/11/30 00:35:23;;;;;;;5.30;2.45;;;4.90;99.90;;;;;;5025033;28;20092;-78
2021/11/30 00:37:49;;;;;;;1.13;1.02;;;4.80;99.90;;;;;;5039040;28;20037;-78
2021/11/30 00:40:15;;;;;;;1.45;1.25;;;4.80;99.90;;;;;;5029486;28;20045;-77
2021/11/30 00:42:41;;;;;;;0.82;0.82;;;4.90;99.90;;;;;;5022077;28;20479;-78
2021/11/30 00:45:09;;;;;;;1.10;1.00;;;4.70;99.90;;;;;;5038242;28;20045;-78
2021/11/30 00:47:38;;;;;;;4.65;1.63;;;4.70;99.90;;;;;;5024046;28;20041;-76
2021/11/30 00:50:06;;;;;;;1.88;1.20;;;4.70;99.90;;;;;;5035836;28;20037;-76
2021/11/30 00:52:32;;;;;;;1.38;1.25;;;4.60;99.90;;;;;;5032463;28;20076;-76
2021/11/30 00:54:58;;;;;;;2.25;1.38;;;4.50;99.90;;;;;;5032768;28;20052;-77
2021/11/30 00:57:24;;;;;;;3.05;1.42;;;4.40;99.90;;;;;;5020144;28;20483;-77
2021/11/30 00:59:52;;;;;;;3.72;1.40;;;4.30;99.90;;;;;;5009362;28;20508;-76
2021/11/30 01:02:17;;;;;;;2.05;1.58;;;4.20;99.90;;;;;;5021371;28;20048;-76
2021/11/30 01:04:43;;;;;;;1.50;1.38;;;4.00;99.90;;;;;;5031686;28;20390;-76
2021/11/30 01:07:11;;;;;;;3.65;1.75;;;3.90;99.90;;;;;;5029937;28;20077;-77
2021/11/30 01:09:42;;;;;;;2.47;1.55;;;3.90;99.90;;;;;;5034286;28;20049;-77
2021/11/30 01:12:09;;;;;;;4.30;2.03;;;3.80;99.90;;;;;;5024163;28;20471;-77
2021/11/30 01:14:36;;;;;;;2.63;1.48;;;3.70;99.90;;;;;;5013976;28;20123;-77
2021/11/30 01:17:02;;;;;;;1.30;1.20;;;3.70;99.90;;;;;;5017487;28;20041;-77
2021/11/30 01:19:28;;;;;;;2.85;1.60;;;3.60;99.90;;;;;;5046641;28;20379;-78
2021/11/30 01:21:53;;;;;;;3.10;1.83;;;3.60;99.90;;;;;;5023619;28;20062;-78
2021/11/30 01:24:19;;;;;;;2.72;1.85;;;3.60;99.90;;;;;;5040451;28;20037;-77
2021/11/30 01:26:45;;;;;;;;;;;3.50;99.90;;;;;;5011086;28;20037;-78
2021/11/30 01:29:11;;;;;;;2.05;1.60;;;3.50;99.90;;;;;;5029500;28;19972;-77
2021/11/30 01:31:37;;;;;;;3.53;1.92;;;3.60;99.90;;;;;;5035894;28;20453;-77
2021/11/30 01:34:03;;;;;;;1.60;1.13;;;3.60;99.90;;;;;;5006026;28;20470;-78
2021/11/30 01:36:29;;;;;;;1.65;1.35;;;3.50;99.90;;;;;;5036870;28;20037;-77
2021/11/30 01:38:55;;;;;;;0.70;0.70;;;3.50;99.90;;;;;;5038848;28;20029;-78
2021/11/30 01:41:21;;;;;;;1.73;1.58;;;3.50;99.90;;;;;;5038023;28;20041;-78
2021/11/30 01:43:48;;;;;;;1.85;1.48;;;3.60;99.90;;;;;;5029934;28;20383;-76
2021/11/30 01:46:40;;;;;;;0.95;0.95;;;3.60;99.90;;;;;;5031943;28;20458;-77
2021/11/30 01:51:34;;;;;;;2.50;1.58;;;3.60;99.90;;;;;;5004073;28;20076;-77
2021/11/30 01:54:01;;;;;;;1.30;1.20;;;3.60;99.90;;;;;;5028463;28;20041;-78
2021/11/30 01:56:27;;;;;;;1.92;1.55;;;3.70;99.90;;;;;;5001198;28;20034;-77
2021/11/30 01:58:55;;;;;;;1.65;1.50;;;3.70;99.90;;;;;;5035815;28;20046;-78
2021/11/30 02:01:22;;;;;;;1.55;1.45;;;3.80;99.90;;;;;;5028015;28;20107;-76
2021/11/30 02:03:48;;;;;;;1.67;1.30;;;3.80;99.90;;;;;;5029242;28;20041;-76
2021/11/30 02:06:14;;;;;;;3.25;1.40;;;3.80;99.90;;;;;;5010259;28;20046;-76
2021/11/30 02:08:40;;;;;;;1.83;1.40;;;3.90;99.90;;;;;;5039810;28;20126;-77
2021/11/30 02:11:07;;;;;;;1.33;1.23;;;3.90;99.90;;;;;;5034774;28;20041;-78
2021/11/30 02:13:33;;;;;;;3.47;1.42;;;4.10;99.90;;;;;;5038768;28;20052;-78
2021/11/30 02:16:01;;;;;;;3.25;1.85;;;4.00;99.90;;;;;;5028115;28;20029;-76
2021/11/30 02:18:28;;;;;;;2.95;1.45;;;4.00;99.90;;;;;;5025377;28;20553;-77
2021/11/30 02:20:57;;;;;;;3.53;2.25;;;4.10;99.90;;;;;;5038622;28;20049;-78
2021/11/30 02:23:33;;;;;;;2.75;1.33;;;4.30;99.90;;;;;;5058457;28;20195;-77
2021/11/30 02:26:00;;;;;;;3.67;2.23;;;4.20;99.90;;;;;;5038985;28;20041;-76
2021/11/30 02:28:26;;;;;;;5.03;1.85;;;4.30;99.90;;;;;;5033613;28;20048;-77
2021/11/30 02:30:52;;;;;;;2.03;1.77;;;4.30;99.90;;;;;;5024730;28;20050;-77
2021/11/30 02:33:18;;;;;;;1.38;1.27;;;4.30;99.90;;;;;;5037199;28;20090;-78
2021/11/30 02:35:44;;;;;;;2.88;2.65;;;4.30;99.90;;;;;;5021273;28;20529;-77
2021/11/30 02:38:10;;;;;;;2.05;1.25;;;4.40;99.90;;;;;;5015491;28;20121;-76
2021/11/30 02:40:36;;;;;;;2.67;1.52;;;4.40;99.90;;;;;;5020151;28;20495;-76
2021/11/30 02:43:03;;;;;;;1.40;1.30;;;4.40;99.90;;;;;;5030841;28;20037;-75
2021/11/30 02:45:29;;;;;;;1.65;1.55;;;4.50;99.90;;;;;;5031394;28;20048;-77
2021/11/30 02:47:55;;;;;;;4.30;2.90;;;4.30;99.90;;;;;;5029901;28;20494;-78
2021/11/30 02:50:22;;;;;;;7.00;2.70;;;4.60;99.90;;;;;;5030418;28;20044;-76
2021/11/30 02:52:47;;;;;;;;;;;4.60;99.90;;;;;;5042119;28;20029;-77
2021/11/30 02:55:13;;;;;;;1.75;1.65;;;4.60;99.90;;;;;;5038177;28;19917;-78
2021/11/30 02:57:39;;;;;;;3.28;2.95;;;4.70;99.90;;;;;;5036343;28;20092;-78
2021/11/30 03:00:06;;;;;;;1.90;1.77;;;4.90;99.90;;;;;;5022699;28;20507;-76
2021/11/30 03:02:32;;;;;;;1.67;1.55;;;4.80;99.90;;;;;;5022377;28;20557;-77
2021/11/30 03:05:01;;;;;;;2.88;2.25;;;4.90;99.90;;;;;;5030310;28;20063;-77
2021/11/30 03:07:38;;;;;;;3.65;2.35;;;5.00;99.90;;;;;;5034484;28;20049;-78
2021/11/30 03:10:11;;;;;;;1.52;1.42;;;5.00;99.90;;;;;;5045867;28;20449;-78
2021/11/30 03:12:37;;;;;;;1.58;1.48;;;5.00;99.90;;;;;;5024115;28;20041;-79
2021/11/30 03:15:07;;;;;;;;;;;5.00;99.90;;;;;;5030975;28;20482;-78
2021/11/30 03:17:33;;;;;;;1.70;1.60;;;5.10;99.90;;;;;;5042949;28;19916;-77
2021/11/30 03:19:58;;;;;;;5.72;2.35;;;5.10;99.90;;;;;;5034371;28;20049;-77
2021/11/30 03:22:24;;;;;;;1.77;1.65;;;5.20;99.90;;;;;;5030880;28;20046;-77
2021/11/30 03:24:50;;;;;;;2.53;1.13;;;5.20;99.90;;;;;;5022662;28;20052;-77
2021/11/30 03:27:15;;;;;;;5.03;2.20;;;5.30;99.90;;;;;;5042720;28;20036;-77
2021/11/30 03:29:41;;;;;;;4.05;2.78;;;5.30;99.90;;;;;;5032194;28;20042;-78
2021/11/30 03:32:11;;;;;;;5.55;1.75;;;5.40;99.90;;;;;;5023451;28;20049;-77
2021/11/30 03:34:37;;;;;;;1.63;1.52;;;5.40;99.90;;;;;;5031080;28;20037;-78
2021/11/30 03:37:04;;;;;;;;;;;5.40;99.90;;;;;;5031098;28;20053;-79
2021/11/30 03:39:30;;;;;;;2.03;1.83;;;5.50;99.90;;;;;;5039812;28;19917;-78
2021/11/30 03:41:58;;;;;;;2.15;1.90;;;5.60;99.90;;;;;;5026452;28;20045;-78
2021/11/30 03:44:26;;;;;;;2.78;2.17;;;5.60;99.90;;;;;;5026147;28;20384;-78
2021/11/30 03:46:52;;;;;;;2.83;1.40;;;5.70;99.90;;;;;;5025043;28;20040;-78
2021/11/30 03:49:19;;;;;;;5.07;2.30;;;5.70;99.90;;;;;;5021794;28;20041;-79
2021/11/30 03:51:45;;;;;;;2.10;1.65;;;5.80;99.90;;;;;;5026612;28;20470;-78
2021/11/30 03:54:11;;;;;;;3.97;2.25;;;5.80;99.90;;;;;;5025635;28;20146;-78
2021/11/30 03:56:37;;;;;;;4.00;2.22;;;5.90;99.90;;;;;;5030727;28;20046;-78
2021/11/30 03:59:04;;;;;;;3.50;2.40;;;6.00;99.90;;;;;;5027824;28;20041;-76
2021/11/30 04:01:30;;;;;;;3.55;2.05;;;6.10;99.90;;;;;;5030396;28;20037;-77
2021/11/30 04:03:56;;;;;;;5.78;2.67;;;6.20;99.90;;;;;;5001635;28;20489;-76
2021/11/30 04:06:23;;;;;;;2.33;2.13;;;6.30;99.90;;;;;;5009904;28;20041;-76
2021/11/30 04:08:50;;;;;;;4.40;2.55;;;6.30;99.90;;;;;;5031071;28;20072;-76
2021/11/30 04:11:16;;;;;;;3.78;2.15;;;6.40;99.90;;;;;;5010438;28;20049;-77
2021/11/30 04:13:42;;;;;;;4.82;2.00;;;6.50;99.90;;;;;;5019188;28;20366;-77
2021/11/30 04:16:08;;;;;;;2.70;2.40;;;6.60;99.90;;;;;;5013694;28;20048;-77
2021/11/30 04:18:34;;;;;;;7.65;3.80;;;6.70;99.90;;;;;;5012907;28;20045;-79
2021/11/30 04:21:00;;;;;;;1.75;1.63;;;6.80;99.90;;;;;;5018913;28;20078;-79
2021/11/30 04:23:26;;;;;;;3.83;2.83;;;6.90;99.90;;;;;;5030591;28;20049;-78
2021/11/30 04:25:52;;;;;;;3.30;2.15;;;6.90;99.90;;;;;;5008393;28;20045;-79
2021/11/30 04:28:18;;;;;;;1.30;1.20;;;7.00;99.90;;;;;;5017968;28;20040;-78
2021/11/30 04:30:43;;;;;;;2.35;1.55;;;7.10;99.90;;;;;;5044990;28;20123;-77
2021/11/30 04:33:09;;;;;;;1.75;1.35;;;7.20;99.90;;;;;;5023764;28;20049;-77
2021/11/30 04:35:35;;;;;;;5.68;2.55;;;7.20;99.90;;;;;;5021833;28;20108;-77
2021/11/30 04:38:00;;;;;;;1.45;1.17;;;7.40;99.90;;;;;;5034037;28;20120;-78
2021/11/30 04:40:26;;;;;;;4.22;1.70;;;7.40;99.90;;;;;;5038753;28;20041;-78
2021/11/30 04:42:52;;;;;;;2.25;1.77;;;7.50;99.90;;;;;;5018096;28;20045;-79
2021/11/30 04:47:53;;;;;;;2.67;1.33;;;7.60;99.90;;;;;;5026006;28;20055;-78
2021/11/30 04:50:24;;;;;;;1.90;1.17;;;7.60;99.90;;;;;;5035970;28;20049;-79
2021/11/30 04:52:51;;;;;;;0.85;0.75;;;7.60;99.90;;;;;;5032835;28;20049;-77
2021/11/30 04:55:23;;;;;;;3.03;0.95;;;7.60;99.90;;;;;;5032953;28;20030;-79
2021/11/30 04:57:53;;;;;;;1.45;1.00;;;7.60;99.90;;;;;;5038088;28;20046;-79
2021/11/30 05:00:19;;;;;;;1.38;1.27;;;7.60;99.90;;;;;;5024832;28;20037;-79
2021/11/30 05:02:45;;;;;;;1.00;0.90;;;7.60;99.90;;;;;;5031635;28;20048;-79
2021/11/30 05:05:13;;;;;;;1.88;1.00;;;7.60;99.90;;;;;;5031068;28;20033;-77
2021/11/30 05:07:40;;;;;;;1.95;1.52;;;7.60;99.90;;;;;;5032159;28;20049;-77
2021/11/30 05:10:06;;;;;;;5.38;1.23;;;7.70;99.90;;;;;;5008977;28;20059;-79
2021/11/30 05:12:32;;;;;;;5.93;1.15;;;7.70;99.90;;;;;;5023297;28;20034;-77
2021/11/30 05:14:57;;;;;;;10.35;1.45;;;7.60;99.90;;;;;;5015598;28;20126;-78
2021/11/30 05:17:23;;;;;;;1.00;0.88;;;7.60;99.90;;;;;;5028952;28;20053;-78
2021/11/30 05:19:49;;;;;;;1.45;1.35;;;7.60;99.90;;;;;;5031795;28;20124;-77
2021/11/30 05:22:14;;;;;;;6.30;1.90;;;7.70;99.90;;;;;;5025047;28;20052;-78
2021/11/30 05:24:40;;;;;;;6.43;1.75;;;7.60;99.90;;;;;;5034746;28;20072;-79
2021/11/30 05:27:06;;;;;;;0.60;0.60;;;7.70;99.90;;;;;;5027240;28;20080;-77
2021/11/30 05:29:32;;;;;;;7.90;1.33;;;7.60;99.90;;;;;;5032777;28;20049;-77
2021/11/30 05:31:58;;;;;;;3.40;1.00;;;7.70;99.90;;;;;;5024542;28;20038;-77
2021/11/30 05:34:23;;;;;;;2.92;1.58;;;7.90;99.90;;;;;;5034541;28;20479;-78
2021/11/30 05:36:49;;;;;;;15.57;1.48;;;7.80;99.90;;;;;;5030216;28;20128;-78
2021/11/30 05:39:15;;;;;;;2.85;1.30;;;7.80;99.90;;;;;;5032355;28;20034;-78
2021/11/30 05:41:40;;;;;;;2.83;1.52;;;7.80;99.90;;;;;;5022430;28;20049;-76
2021/11/30 05:44:07;;;;;;;1.65;1.08;;;7.70;99.90;;;;;;5030221;28;20148;-77
2021/11/30 05:46:35;;;;;;;0.60;0.60;;;7.70;99.90;;;;;;5033933;28;20045;-77
2021/11/30 05:49:03;;;;;;;2.20;1.30;;;7.70;99.90;;;;;;5044261;28;20056;-77
2021/11/30 05:51:28;;;;;;;2.15;1.45;;;7.70;99.90;;;;;;5023587;28;20053;-76
2021/11/30 05:53:54;;;;;;;2.15;1.02;;;7.80;99.90;;;;;;5030942;28;20041;-76
2021/11/30 05:56:21;;;;;;;2.40;1.25;;;7.70;99.90;;;;;;5031037;28;20121;-78
2021/11/30 05:58:47;;;;;;;5.57;0.82;;;7.70;99.90;;;;;;5029701;28;20042;-76
2021/11/30 06:04:08;;;;;;;6.80;1.33;;;7.70;99.90;;;;;;5020489;28;20295;-77
2021/11/30 06:06:36;;;;;;;2.15;2.05;;;7.80;99.90;;;;;;5038317;28;20037;-77
2021/11/30 06:09:05;;;;;;;7.05;1.15;;;7.80;99.90;;;;;;5034475;28;20384;-78
2021/11/30 06:11:31;;;;;;;0.57;0.57;;;7.80;99.90;;;;;;5030002;28;20131;-77
2021/11/30 06:13:57;;;;;;;0.75;0.60;;;7.80;99.90;;;;;;5025060;28;20546;-79
2021/11/30 06:16:23;;;;;;;4.15;1.45;;;7.80;99.90;;;;;;5042075;28;20045;-77
2021/11/30 06:18:49;;;;;;;6.45;1.90;;;7.80;99.90;;;;;;5028305;28;20040;-76
2021/11/30 06:21:17;;;;;;;3.63;1.58;;;7.80;99.90;;;;;;5040981;28;20056;-77
2021/11/30 06:23:43;;;;;;;9.50;1.63;;;7.80;99.90;;;;;;5029045;28;20045;-77
2021/11/30 06:26:09;;;;;;;;;;;7.70;99.90;;;;;;5042778;28;20075;-78
2021/11/30 06:28:36;;;;;;;2.43;1.00;;;7.70;99.90;;;;;;5031962;28;19917;-77
2021/11/30 06:31:02;;;;;;;3.72;0.93;;;7.70;99.90;;;;;;5027240;28;20129;-77
2021/11/30 06:33:28;;;;;;;2.35;1.42;;;7.70;99.90;;;;;;5016484;28;20068;-78
2021/11/30 06:35:54;;;;;;;1.15;1.05;;;7.70;99.90;;;;;;5009446;28;20041;-78
2021/11/30 06:38:20;;;;;;;0.85;0.85;;;7.70;99.90;;;;;;4994509;28;20045;-77
2021/11/30 06:40:46;;;;;;;1.02;1.02;;;7.70;99.90;;;;;;5005396;28;20068;-76
2021/11/30 06:43:12;;;;;;;0.60;0.60;;;7.80;99.90;;;;;;4991089;28;20049;-79
2021/11/30 06:45:37;;;;;;;3.38;1.27;;;7.70;99.90;;;;;;5004740;28;20052;-77
2021/11/30 06:48:03;;;;;;;6.65;1.17;;;7.80;99.90;;;;;;5003630;28;20043;-76
2021/11/30 06:50:29;;;;;;;1.33;1.23;;;7.70;99.90;;;;;;4980855;28;20120;-75
2021/11/30 06:52:55;;;;;;;5.78;1.13;;;7.80;99.90;;;;;;5011802;28;20341;-77
2021/11/30 06:55:21;;;;;;;6.45;1.73;;;7.70;99.90;;;;;;5013803;28;20073;-78
2021/11/30 06:57:47;;;;;;;;;;;7.70;99.90;;;;;;4996247;28;20387;-78
2021/11/30 07:00:17;;;;;;;0.60;0.60;;;7.70;99.90;;;;;;5032570;28;19966;-76
2021/11/30 07:02:44;;;;;;;3.92;1.35;;;7.60;99.90;;;;;;5016259;28;20057;-76
2021/11/30 07:10:41;;;;;;;0.68;0.68;;;7.50;99.90;;;;;;5006921;28;20450;-77
2021/11/30 07:16:02;;;;;;;0.52;0.52;;;7.50;99.90;;;;;;5002704;28;20455;-78
2021/11/30 07:18:29;;;;;;;3.45;1.33;;;7.50;99.90;;;;;;4998638;28;20125;-77
2021/11/30 07:20:56;;;;;;;1.83;1.05;;;7.50;99.90;;;;;;4983290;28;20424;-77
2021/11/30 07:23:23;;;;;;;1.65;0.98;;;7.40;99.90;;;;;;5008956;28;20438;-78
2021/11/30 07:25:52;;;;;;;2.47;0.70;;;7.50;99.90;;;;;;4984312;28;20119;-78
2021/11/30 07:28:28;;;;;;;0.75;0.75;;;7.40;99.90;;;;;;5004234;28;20049;-78
2021/11/30 07:30:57;;;;;;;0.60;0.60;;;7.40;99.90;;;;;;5032776;28;20167;-77
2021/11/30 07:33:23;;;;;;;0.80;0.80;;;7.40;99.90;;;;;;5021457;28;20053;-76
2021/11/30 07:35:49;;;;;;;0.70;0.70;;;7.40;99.90;;;;;;5017556;28;20044;-78
2021/11/30 07:38:14;;;;;;;0.60;0.60;;;7.40;99.90;;;;;;5036835;28;20525;-78
2021/11/30 07:40:40;;;;;;;0.60;0.60;;;7.40;99.90;;;;;;4988933;28;20259;-77
2021/11/30 07:43:06;;;;;;;2.85;1.85;;;7.40;99.90;;;;;;5004071;28;20048;-78
2021/11/30 07:45:32;;;;;;;0.60;0.60;;;7.60;99.90;;;;;;5027721;28;20483;-76
2021/11/30 07:47:57;;;;;;;3.13;1.15;;;7.30;99.90;;;;;;5028517;28;20385;-78
2021/11/30 07:50:23;;;;;;;0.80;0.75;;;7.30;99.90;;;;;;5015724;28;20053;-76
2021/11/30 07:52:49;;;;;;;0.90;0.90;;;7.30;99.90;;;;;;5028442;28;20029;-78
2021/11/30 07:55:16;;;;;;;3.00;0.68;;;7.30;99.90;;;;;;5023972;28;20131;-78
2021/11/30 07:57:42;;;;;;;1.90;1.25;;;7.30;99.90;;;;;;5009044;28;20069;-77
2021/11/30 08:00:09;;;;;;;;;;;7.30;99.90;;;;;;5024443;28;20060;-77
2021/11/30 08:02:35;;;;;;;1.48;1.38;;;7.30;99.90;;;;;;5018823;28;19923;-77
2021/11/30 08:05:01;;;;;;;1.23;1.05;;;7.30;99.90;;;;;;5024967;28;20041;-76
2021/11/30 08:07:26;;;;;;;0.80;0.77;;;7.30;99.90;;;;;;5024966;28;20151;-76
2021/11/30 08:09:52;;;;;;;1.13;1.02;;;7.40;99.90;;;;;;5005524;28;20049;-77
2021/11/30 08:12:18;;;;;;;1.63;1.45;;;7.40;99.90;;;;;;5021596;28;20037;-76
2021/11/30 08:14:44;;;;;;;4.97;1.20;;;7.40;99.90;;;;;;5005022;28;20053;-78
2021/11/30 08:17:17;;;;;;;1.35;1.02;;;7.40;99.90;;;;;;5019390;28;20046;-78
2021/11/30 08:19:46;;;;;;;1.40;1.30;;;7.40;99.90;;;;;;5009125;28;20046;-76
2021/11/30 08:22:13;;;;;;;1.20;0.93;;;7.40;99.90;;;;;;5016630;28;20039;-79
2021/11/30 08:24:39;;;;;;;2.03;1.25;;;7.40;99.90;;;;;;5025769;28;20033;-80
2021/11/30 08:27:06;;;;;;;0.82;0.82;;;7.40;99.90;;;;;;5028171;28;20048;-79
2021/11/30 08:29:34;;;;;;;2.20;1.17;;;7.40;99.90;;;;;;5022659;28;20145;-80
2021/11/30 08:32:00;;;;;;;1.27;1.17;;;7.40;99.90;;;;;;5021439;28;20100;-78
2021/11/30 08:34:26;;;;;;;;;;;7.30;99.90;;;;;;4992288;28;20041;-79
2021/11/30 08:36:52;;;;;;;1.38;1.27;;;7.30;99.90;;;;;;4997455;28;19928;-79
2021/11/30 08:39:18;;;;;;;2.20;0.68;;;7.40;99.90;;;;;;5020378;28;20092;-78
2021/11/30 08:41:44;;;;;;;4.00;1.15;;;7.30;99.90;;;;;;5017716;28;20112;-80
2021/11/30 08:44:10;;;;;;;6.05;2.15;;;7.40;99.90;;;;;;5023288;28;20055;-78
2021/11/30 08:46:36;;;;;;;;;;;7.40;99.90;;;;;;5020045;28;20041;-78
2021/11/30 08:49:02;;;;;;;1.30;1.30;;;7.40;99.90;;;;;;5007749;28;20294;-80
2021/11/30 08:51:27;;;;;;;0.57;0.57;;;7.40;99.90;;;;;;5000876;28;20053;-79
2021/11/30 08:53:53;;;;;;;2.00;0.77;;;7.40;99.90;;;;;;4996612;28;20045;-79
2021/11/30 08:56:19;;;;;;;1.27;1.17;;;7.50;99.90;;;;;;5001177;28;20045;-80
2021/11/30 08:58:44;;;;;;;3.92;1.63;;;7.40;99.90;;;;;;5023960;28;20040;-78
2021/11/30 09:01:10;;;;;;;1.45;0.88;;;7.40;99.90;;;;;;5014843;28;20135;-79
2021/11/30 09:03:36;;;;;;;0.85;0.85;;;7.40;99.90;;;;;;5022045;28;20080;-80
2021/11/30 09:06:02;;;;;;;0.98;0.93;;;7.40;99.90;;;;;;5021318;28;20068;-78
2021/11/30 09:08:28;;;;;;;1.17;0.82;;;7.40;99.90;;;;;;5018994;28;20494;-79
2021/11/30 09:10:54;;;;;;;0.90;0.90;;;7.40;99.90;;;;;;5002973;28;20041;-79
2021/11/30 09:13:20;;;;;;;1.65;1.13;;;7.40;99.90;;;;;;4999611;28;20514;-78
2021/11/30 09:15:46;;;;;;;8.13;1.90;;;7.40;99.90;;;;;;5021756;28;20076;-79
2021/11/30 09:18:12;;;;;;;0.70;0.70;;;7.40;99.90;;;;;;5024729;28;20046;-79
2021/11/30 09:20:38;;;;;;;1.75;0.80;;;7.50;99.90;;;;;;5025820;28;20203;-78
2021/11/30 09:23:04;;;;;;;6.65;2.17;;;7.50;99.90;;;;;;5018587;28;20120;-78
2021/11/30 09:25:30;;;;;;;3.60;1.15;;;7.50;99.90;;;;;;5033053;28;20530;-78
2021/11/30 09:27:58;;;;;;;5.43;0.98;;;7.60;99.90;;;;;;5021292;28;20037;-76
2021/11/30 09:30:28;;;;;;;0.85;0.85;;;7.60;99.90;;;;;;5012504;28;20072;-78
2021/11/30 09:32:54;;;;;;;4.97;1.30;;;7.60;99.90;;;;;;5024574;28;20071;-76
2021/11/30 09:35:21;;;;;;;;;;;7.70;99.90;;;;;;5027340;28;20136;-77
2021/11/30 09:37:50;;;;;;;2.03;1.23;;;7.70;99.90;;;;;;5026019;28;19928;-76
2021/11/30 09:40:22;;;;;;;3.20;1.20;;;7.80;99.90;;;;;;5025329;28;20143;-78
2021/11/30 09:42:49;;;;;;;1.20;0.70;;;7.80;99.90;;;;;;5022174;28;20155;-78
2021/11/30 09:45:15;;;;;;;3.55;1.15;;;7.80;99.90;;;;;;5012871;28;20065;-77
2021/11/30 09:47:41;;;;;;;0.80;0.70;;;7.80;99.90;;;;;;5012930;28;20060;-77
2021/11/30 09:50:12;;;;;;;4.53;0.60;;;7.80;99.90;;;;;;5005245;28;20041;-78
2021/11/30 09:52:38;;;;;;;3.30;1.67;;;7.80;99.90;;;;;;5003112;28;20041;-77
2021/11/30 09:55:05;;;;;;;;;;;7.80;99.90;;;;;;5039719;28;20131;-77
2021/11/30 09:57:31;;;;;;;6.35;1.55;;;7.80;99.90;;;;;;5025112;28;19980;-79
2021/11/30 09:59:57;;;;;;;0.80;0.80;;;7.80;99.90;;;;;;5025007;28;20047;-76
2021/11/30 10:02:23;;;;;;;1.23;0.88;;;7.70;99.90;;;;;;5029534;28;20131;-77
2021/11/30 10:04:48;;;;;;;2.75;1.42;;;7.70;99.90;;;;;;5011152;28;20040;-78
2021/11/30 10:07:14;;;;;;;1.30;1.23;;;7.70;99.90;;;;;;5030731;28;20038;-76
2021/11/30 10:09:40;;;;;;;1.52;0.95;;;7.70;99.90;;;;;;5003712;28;20122;-77
2021/11/30 10:12:09;;;;;;;1.40;0.88;;;7.70;99.90;;;;;;5015275;28;20274;-77
2021/11/30 10:14:38;;;;;;;1.17;0.82;;;7.80;99.90;;;;;;5005665;28;20151;-77
2021/11/30 10:17:13;;;;;;;4.57;0.93;;;7.80;99.90;;;;;;5028740;28;20059;-78
2021/11/30 10:19:41;;;;;;;3.75;1.75;;;7.90;99.90;;;;;;5009642;28;20046;-78
2021/11/30 10:22:08;;;;;;;7.95;1.30;;;7.90;99.90;;;;;;5019502;28;20372;-77
2021/11/30 10:24:35;;;;;;;9.40;1.48;;;8.00;99.90;;;;;;4996418;28;20414;-77
2021/11/30 10:27:00;;;;;;;13.80;1.63;;;8.00;99.90;;;;;;5003890;28;20482;-76
2021/11/30 10:29:29;;;;;;;1.17;1.05;;;8.00;99.90;;;;;;4985870;28;20136;-77
2021/11/30 10:31:55;;;;;;;1.60;1.45;;;8.00;99.90;;;;;;5016397;28;20050;-77
2021/11/30 10:34:28;;;;;;;4.80;1.63;;;8.00;99.90;;;;;;5022363;28;20353;-77
2021/11/30 10:37:06;;;;;;;6.72;1.75;;;8.10;99.90;;;;;;5022946;28;20486;-77
2021/11/30 10:39:39;;;;;;;2.05;1.40;;;8.20;99.90;;;;;;5012464;28;20041;-78
2021/11/30 10:42:31;;;;;;;3.05;1.98;;;8.10;99.90;;;;;;5012037;28;20123;-78
2021/11/30 10:44:57;;;;;;;3.03;1.75;;;8.10;99.90;;;;;;5021008;28;20092;-77
2021/11/30 10:47:25;;;;;;;1.30;1.05;;;8.10;99.90;;;;;;5004442;28;20073;-76
2021/11/30 10:49:54;;;;;;;1.38;1.05;;;8.10;99.90;;;;;;4997684;28;20449;-77
2021/11/30 10:52:26;;;;;;;5.07;1.30;;;8.00;99.90;;;;;;5002389;28;20041;-76
2021/11/30 10:55:22;;;;;;;5.88;1.67;;;7.90;99.90;;;;;;5007134;28;20045;-77
2021/11/30 10:57:49;;;;;;;2.83;0.93;;;7.80;99.90;;;;;;4989150;28;20132;-78
2021/11/30 11:00:33;;;;;;;1.85;1.00;;;7.70;99.90;;;;;;5014656;28;20041;-77
2021/11/30 11:03:10;;;;;;;4.72;1.80;;;7.70;99.90;;;;;;5018153;28;20128;-77
2021/11/30 11:05:43;;;;;;;;;;;7.60;99.90;;;;;;5026024;28;20072;-77
2021/11/30 11:08:16;;;;;;;9.05;1.52;;;7.60;99.90;;;;;;5013765;28;20076;-76
2021/11/30 11:10:59;;;;;;;1.40;1.10;;;7.70;99.90;;;;;;5011585;28;20071;-76
2021/11/30 11:13:31;;;;;;;3.92;1.45;;;7.70;99.90;;;;;;4997285;28;20049;-76
2021/11/30 11:16:03;;;;;;;5.78;1.40;;;7.70;99.90;;;;;;5026611;28;20506;-77
2021/11/30 11:18:37;;;;;;;1.98;1.25;;;7.80;99.90;;;;;;5008211;28;20135;-76
2021/11/30 11:21:11;;;;;;;7.78;1.25;;;7.80;99.90;;;;;;5027140;28;20136;-76
2021/11/30 11:23:42;;;;;;;1.50;1.40;;;7.80;99.90;;;;;;5020307;28;20408;-76
2021/11/30 11:26:39;;;;;;;0.85;0.80;;;7.80;99.90;;;;;;5002174;28;20452;-77
2021/11/30 11:29:14;;;;;;;8.25;1.80;;;8.00;99.90;;;;;;5007160;28;20119;-77
2021/11/30 11:32:02;;;;;;;2.63;1.15;;;8.00;99.90;;;;;;5018178;28;20053;-77
2021/11/30 11:34:30;;;;;;;2.40;1.10;;;8.00;99.90;;;;;;5019650;28;20451;-76
2021/11/30 11:36:57;;;;;;;0.95;0.93;;;8.10;99.90;;;;;;5035296;28;20076;-76
2021/11/30 11:39:24;;;;;;;1.48;1.33;;;8.20;99.90;;;;;;5010109;28;20055;-77
2021/11/30 11:41:59;;;;;;;2.40;1.33;;;8.20;99.90;;;;;;5020948;28;20042;-77
2021/11/30 11:44:26;;;;;;;2.45;1.67;;;8.20;99.90;;;;;;5003309;28;20447;-77
2021/11/30 11:46:57;;;;;;;0.93;0.88;;;8.20;99.90;;;;;;5003988;28;20053;-76
2021/11/30 11:49:26;;;;;;;2.60;1.48;;;8.20;99.90;;;;;;5005729;28;20478;-76
2021/11/30 11:51:54;;;;;;;1.85;0.85;;;8.20;99.90;;;;;;5014016;28;20375;-77
2021/11/30 11:54:32;;;;;;;1.85;1.23;;;8.20;99.90;;;;;;4988813;28;20069;-76
2021/11/30 11:57:04;;;;;;;6.20;2.03;;;8.20;99.90;;;;;;5005568;28;20038;-76
2021/11/30 11:59:43;;;;;;;4.13;1.98;;;8.10;99.90;;;;;;5023467;28;20045;-77
2021/11/30 12:02:29;;;;;;;3.97;1.63;;;8.10;99.90;;;;;;5019728;28;20053;-76
2021/11/30 12:05:07;;;;;;;1.85;1.42;;;8.10;99.90;;;;;;5017195;28;20132;-77
2021/11/30 12:07:57;;;;;;;4.25;1.83;;;8.10;99.90;;;;;;5009303;28;20119;-76
2021/11/30 12:10:25;;;;;;;4.57;1.80;;;8.00;99.90;;;;;;5019625;28;20542;-76
2021/11/30 12:12:58;;;;;;;1.75;1.50;;;8.00;99.90;;;;;;5014832;28;20513;-77
2021/11/30 12:15:25;;;;;;;0.93;0.93;;;8.00;99.90;;;;;;5030991;28;20122;-77
2021/11/30 12:17:51;;;;;;;6.38;1.83;;;8.00;99.90;;;;;;5012211;28;20037;-78
2021/11/30 12:20:17;;;;;;;1.50;1.20;;;8.00;99.90;;;;;;5028012;28;20045;-76
2021/11/30 12:22:43;;;;;;;2.65;2.10;;;8.10;99.90;;;;;;5006450;28;20052;-76
2021/11/30 12:25:26;;;;;;;10.88;1.48;;;8.10;99.90;;;;;;5032201;28;20494;-75
2021/11/30 12:27:57;;;;;;;2.58;1.25;;;8.10;99.90;;;;;;5004640;28;20037;-75
2021/11/30 12:30:46;;;;;;;1.30;1.05;;;8.10;99.90;;;;;;5026705;28;20065;-78
2021/11/30 12:33:30;;;;;;;6.40;1.23;;;8.10;99.90;;;;;;5003593;28;20406;-78
2021/11/30 12:36:06;;;;;;;5.40;1.45;;;8.20;99.90;;;;;;5037466;28;20044;-76
2021/11/30 12:38:37;;;;;;;;;;;8.10;99.90;;;;;;5035541;28;20045;-76
2021/11/30 12:41:28;;;;;;;2.72;1.60;;;8.20;99.90;;;;;;5012779;28;19921;-76
2021/11/30 12:44:06;;;;;;;4.13;1.17;;;8.10;99.90;;;;;;5028468;28;20421;-77
2021/11/30 12:46:33;;;;;;;5.28;1.30;;;8.10;99.90;;;;;;5033529;28;20072;-77
2021/11/30 12:49:02;;;;;;;2.45;1.40;;;8.00;99.90;;;;;;5037147;28;20049;-75
2021/11/30 12:51:29;;;;;;;1.60;0.68;;;8.00;99.90;;;;;;5010531;28;20422;-76
2021/11/30 12:53:58;;;;;;;1.42;0.82;;;7.90;99.90;;;;;;5020160;28;20034;-77
2021/11/30 12:56:50;;;;;;;9.90;1.33;;;7.90;99.90;;;;;;5017276;28;20079;-78
2021/11/30 12:59:41;;;;;;;2.42;1.25;;;7.80;99.90;;;;;;5020251;28;20616;-77
2021/11/30 13:02:25;;;;;;;0.93;0.93;;;7.80;99.90;;;;;;5021383;28;20172;-78
2021/11/30 13:05:18;;;;;;;2.15;1.58;;;7.80;99.90;;;;;;5028077;28;20398;-76
2021/11/30 13:07:46;;;;;;;4.47;1.27;;;7.80;99.90;;;;;;5024959;28;20478;-78
2021/11/30 13:10:34;;;;;;;1.02;0.93;;;7.80;99.90;;;;;;5018267;28;20050;-78
2021/11/30 13:13:13;;;;;;;5.05;1.25;;;7.80;99.90;;;;;;5039593;28;20045;-78
2021/11/30 13:15:48;;;;;;;1.20;1.10;;;7.80;99.90;;;;;;5028611;28;20053;-76
2021/11/30 13:18:15;;;;;;;4.57;2.75;;;7.80;99.90;;;;;;5029549;28;20115;-77
2021/11/30 13:20:42;;;;;;;2.65;1.70;;;7.80;99.90;;;;;;5032434;28;20045;-78
2021/11/30 13:23:09;;;;;;;9.35;2.25;;;7.70;99.90;;;;;;5009985;28;20041;-76